sensor_id;sensor_type;location;lat;lon;timestamp;P1;durP1;ratioP1;P2;durP2;ratioP2
3831;SDS011;12460;42.662;23.288;2023-02-15T00:00:45;34.37;;;18.90;;
3831;SDS011;12460;42.662;23.288;2023-02-15T00:15:49;30.70;;;18.50;;
3831;SDS011;12460;42.662;23.288;2023-02-15T00:30:53;35.40;;;20.13;;
3831;SDS011;12460;42.662;23.288;2023-02-15T00:45:58;34.57;;;19.10;;
3831;SDS011;12460;42.662;23.288;2023-02-15T01:01:04;32.80;;;19.07;;
3831;SDS011;12460;42.662;23.288;2023-02-15T01:16:11;33.13;;;19.30;;
3831;SDS011;12460;42.662;23.288;2023-02-15T01:31:19;33.23;;;20.00;;
3831;SDS011;12460;42.662;23.288;2023-02-15T01:46:26;27.67;;;17.57;;
3831;SDS011;12460;42.662;23.288;2023-02-15T02:01:37;36.00;;;18.37;;
3831;SDS011;12460;42.662;23.288;2023-02-15T02:16:52;32.33;;;18.57;;
3831;SDS011;12460;42.662;23.288;2023-02-15T03:02:46;27.10;;;15.87;;
3831;SDS011;12460;42.662;23.288;2023-02-15T03:17:57;27.97;;;15.80;;
3831;SDS011;12460;42.662;23.288;2023-02-15T03:33:06;26.90;;;16.50;;
3831;SDS011;12460;42.662;23.288;2023-02-15T03:48:12;25.20;;;15.20;;
3831;SDS011;12460;42.662;23.288;2023-02-15T04:03:26;26.17;;;15.30;;
3831;SDS011;12460;42.662;23.288;2023-02-15T04:34:05;30.30;;;16.43;;
3831;SDS011;12460;42.662;23.288;2023-02-15T04:49:10;24.33;;;15.83;;
3831;SDS011;12460;42.662;23.288;2023-02-15T05:04:15;27.23;;;15.83;;
3831;SDS011;12460;42.662;23.288;2023-02-15T05:19:19;26.53;;;16.97;;
3831;SDS011;12460;42.662;23.288;2023-02-15T05:34:24;26.43;;;16.60;;
3831;SDS011;12460;42.662;23.288;2023-02-15T05:49:29;24.60;;;15.10;;
3831;SDS011;12460;42.662;23.288;2023-02-15T06:04:34;28.60;;;16.40;;
3831;SDS011;12460;42.662;23.288;2023-02-15T06:19:38;27.97;;;16.70;;
3831;SDS011;12460;42.662;23.288;2023-02-15T06:34:42;23.30;;;15.33;;
3831;SDS011;12460;42.662;23.288;2023-02-15T06:49:48;24.00;;;15.27;;
3831;SDS011;12460;42.662;23.288;2023-02-15T07:04:52;23.67;;;13.83;;
3831;SDS011;12460;42.662;23.288;2023-02-15T07:19:57;22.37;;;13.67;;
3831;SDS011;12460;42.662;23.288;2023-02-15T07:35:02;21.90;;;13.70;;
3831;SDS011;12460;42.662;23.288;2023-02-15T07:50:06;21.80;;;14.50;;
3831;SDS011;12460;42.662;23.288;2023-02-15T08:05:11;22.70;;;12.87;;
3831;SDS011;12460;42.662;23.288;2023-02-15T08:20:15;17.60;;;12.30;;
3831;SDS011;12460;42.662;23.288;2023-02-15T08:35:20;24.70;;;14.67;;
3831;SDS011;12460;42.662;23.288;2023-02-15T08:50:25;16.80;;;12.10;;
3831;SDS011;12460;42.662;23.288;2023-02-15T09:05:29;21.60;;;13.17;;
3831;SDS011;12460;42.662;23.288;2023-02-15T09:20:37;21.10;;;12.80;;
3831;SDS011;12460;42.662;23.288;2023-02-15T09:35:42;25.20;;;15.10;;
3831;SDS011;12460;42.662;23.288;2023-02-15T10:21:39;21.60;;;15.37;;
3831;SDS011;12460;42.662;23.288;2023-02-15T10:37:05;22.33;;;14.83;;
3831;SDS011;12460;42.662;23.288;2023-02-15T10:52:54;22.13;;;14.70;;
3831;SDS011;12460;42.662;23.288;2023-02-15T11:08:23;25.33;;;15.93;;
3831;SDS011;12460;42.662;23.288;2023-02-15T11:23:30;25.30;;;16.40;;
3831;SDS011;12460;42.662;23.288;2023-02-15T11:38:37;21.53;;;16.53;;
3831;SDS011;12460;42.662;23.288;2023-02-15T11:53:47;20.53;;;15.87;;
3831;SDS011;12460;42.662;23.288;2023-02-15T12:24:27;26.37;;;18.27;;
3831;SDS011;12460;42.662;23.288;2023-02-15T12:39:34;23.90;;;16.07;;
3831;SDS011;12460;42.662;23.288;2023-02-15T12:54:39;23.47;;;16.83;;
3831;SDS011;12460;42.662;23.288;2023-02-15T13:09:44;20.63;;;16.07;;
3831;SDS011;12460;42.662;23.288;2023-02-15T13:24:50;24.50;;;16.70;;
3831;SDS011;12460;42.662;23.288;2023-02-15T14:41:51;28.37;;;18.80;;
3831;SDS011;12460;42.662;23.288;2023-02-15T15:12:36;28.70;;;18.40;;
3831;SDS011;12460;42.662;23.288;2023-02-15T15:58:37;29.57;;;19.07;;
3831;SDS011;12460;42.662;23.288;2023-02-15T16:13:48;37.40;;;21.37;;
3831;SDS011;12460;42.662;23.288;2023-02-15T16:28:53;27.60;;;17.93;;
3831;SDS011;12460;42.662;23.288;2023-02-15T16:43:59;32.50;;;21.10;;
3831;SDS011;12460;42.662;23.288;2023-02-15T16:59:15;32.00;;;19.57;;
3831;SDS011;12460;42.662;23.288;2023-02-15T17:14:39;31.63;;;21.00;;
3831;SDS011;12460;42.662;23.288;2023-02-15T17:29:48;36.40;;;20.67;;
3831;SDS011;12460;42.662;23.288;2023-02-15T17:44:55;33.60;;;20.97;;
3831;SDS011;12460;42.662;23.288;2023-02-15T18:00:00;27.70;;;18.60;;
3831;SDS011;12460;42.662;23.288;2023-02-15T18:15:23;26.30;;;16.53;;
3831;SDS011;12460;42.662;23.288;2023-02-15T18:30:27;24.43;;;15.60;;
3831;SDS011;12460;42.662;23.288;2023-02-15T18:45:31;30.13;;;15.63;;
3831;SDS011;12460;42.662;23.288;2023-02-15T19:00:39;31.90;;;21.60;;
3831;SDS011;12460;42.662;23.288;2023-02-15T19:15:46;36.47;;;21.20;;
3831;SDS011;12460;42.662;23.288;2023-02-15T19:30:50;31.17;;;19.77;;
3831;SDS011;12460;42.662;23.288;2023-02-15T19:45:55;33.93;;;17.97;;
3831;SDS011;12460;42.662;23.288;2023-02-15T20:00:59;37.83;;;21.30;;
3831;SDS011;12460;42.662;23.288;2023-02-15T20:16:05;30.23;;;19.10;;
3831;SDS011;12460;42.662;23.288;2023-02-15T20:31:14;29.73;;;18.03;;
3831;SDS011;12460;42.662;23.288;2023-02-15T20:46:21;33.47;;;19.40;;
3831;SDS011;12460;42.662;23.288;2023-02-15T21:01:25;34.27;;;20.10;;
3831;SDS011;12460;42.662;23.288;2023-02-15T21:16:30;34.23;;;20.03;;
3831;SDS011;12460;42.662;23.288;2023-02-15T21:31:35;45.37;;;27.87;;
3831;SDS011;12460;42.662;23.288;2023-02-15T21:46:40;48.33;;;27.70;;
3831;SDS011;12460;42.662;23.288;2023-02-15T22:01:48;47.47;;;27.37;;
3831;SDS011;12460;42.662;23.288;2023-02-15T22:16:54;48.63;;;29.17;;
3831;SDS011;12460;42.662;23.288;2023-02-15T22:31:58;48.20;;;27.67;;
3831;SDS011;12460;42.662;23.288;2023-02-15T22:47:03;47.27;;;28.30;;
3831;SDS011;12460;42.662;23.288;2023-02-15T23:02:09;52.10;;;29.60;;
3831;SDS011;12460;42.662;23.288;2023-02-15T23:17:16;54.83;;;29.80;;
3831;SDS011;12460;42.662;23.288;2023-02-15T23:32:20;48.20;;;27.73;;
3831;SDS011;12460;42.662;23.288;2023-02-15T23:47:26;49.10;;;28.47;;
